N333HN KTEX-KSDL
Flight info
| Callsign | N333HN |
|---|---|
| Flight time | 0h 53m |
| Altitude | 43000 |
| Route | LJAYY DSERT2 |
| Aircraft | GLF6/M-SBDE2E3FGHIJ4J5M1RWXY/LB1D1 |
Departure
| Time | 2026-04-25 06:00 |
|---|---|
| Airport | Telluride Regional Airport (KTEX) |
Arrival
| Time | 2026-04-25 06:53 |
|---|---|
| Airport | Scottsdale Airport (KSDL) |
| Time | Latitude | Longitude | Altitude | Speed | Heading |
|---|---|---|---|---|---|
| 2026-04-25 05:31 | 37.95404 | -107.90106 | 9089 ft | 0 kts | 192° |
| 2026-04-25 05:55 | 37.95391 | -107.90109 | 9089 ft | 4 kts | 187° |
| 2026-04-25 05:55 | 37.95348 | -107.90095 | 9090 ft | 7 kts | 150° |
| 2026-04-25 05:56 | 37.95322 | -107.90054 | 9090 ft | 5 kts | 107° |
| 2026-04-25 05:56 | 37.95305 | -107.89975 | 9090 ft | 14 kts | 107° |
| 2026-04-25 05:56 | 37.95269 | -107.89811 | 9090 ft | 23 kts | 106° |
| 2026-04-25 05:56 | 37.95229 | -107.89677 | 9090 ft | 8 kts | 139° |
| 2026-04-25 05:57 | 37.95179 | -107.89681 | 9090 ft | 6 kts | 196° |
| 2026-04-25 05:57 | 37.95145 | -107.89694 | 9090 ft | 3 kts | 206° |
| 2026-04-25 05:57 | 37.95136 | -107.89713 | 9090 ft | 1 kts | 267° |
| 2026-04-25 05:57 | 37.95137 | -107.89722 | 9090 ft | 0 kts | 282° |
| 2026-04-25 05:59 | 37.95180 | -107.89932 | 9090 ft | 67 kts | 285° |
| 2026-04-25 05:59 | 37.95378 | -107.90861 | 9075 ft | 148 kts | 284° |
| 2026-04-25 06:00 | 37.95658 | -107.92189 | 9711 ft | 162 kts | 284° |
| 2026-04-25 06:00 | 37.95939 | -107.93556 | 10507 ft | 167 kts | 283° |
| 2026-04-25 06:00 | 37.96290 | -107.95182 | 10645 ft | 219 kts | 284° |
| 2026-04-25 06:00 | 37.96744 | -107.97298 | 10663 ft | 279 kts | 284° |
| 2026-04-25 06:01 | 37.97292 | -107.99873 | 11056 ft | 317 kts | 284° |
| 2026-04-25 06:01 | 37.97834 | -108.02338 | 13049 ft | 296 kts | 283° |
| 2026-04-25 06:01 | 37.98443 | -108.05050 | 13118 ft | 343 kts | 281° |
| 2026-04-25 06:01 | 37.98327 | -108.08038 | 14116 ft | 351 kts | 251° |
| 2026-04-25 06:02 | 37.97092 | -108.10620 | 15662 ft | 349 kts | 232° |
| 2026-04-25 06:02 | 37.95417 | -108.12929 | 16760 ft | 361 kts | 227° |
| 2026-04-25 06:02 | 37.93652 | -108.15141 | 18076 ft | 365 kts | 226° |
| 2026-04-25 06:02 | 37.91820 | -108.17353 | 19391 ft | 370 kts | 225° |
| 2026-04-25 06:03 | 37.89952 | -108.19569 | 20637 ft | 375 kts | 225° |
| 2026-04-25 06:03 | 37.88064 | -108.21790 | 21925 ft | 378 kts | 226° |
| 2026-04-25 06:03 | 37.86116 | -108.24074 | 23148 ft | 383 kts | 226° |
| 2026-04-25 06:03 | 37.84171 | -108.26350 | 24271 ft | 389 kts | 226° |
| 2026-04-25 06:04 | 37.82188 | -108.28667 | 25481 ft | 392 kts | 227° |
| 2026-04-25 06:04 | 37.80191 | -108.30997 | 26520 ft | 396 kts | 227° |
| 2026-04-25 06:04 | 37.78154 | -108.33374 | 27559 ft | 401 kts | 227° |
| 2026-04-25 06:04 | 37.76109 | -108.35758 | 28610 ft | 404 kts | 227° |
| 2026-04-25 06:05 | 37.74041 | -108.38165 | 29533 ft | 409 kts | 227° |
| 2026-04-25 06:05 | 37.71954 | -108.40593 | 30499 ft | 411 kts | 228° |
| 2026-04-25 06:05 | 37.69845 | -108.43045 | 31301 ft | 415 kts | 228° |
| 2026-04-25 06:05 | 37.67739 | -108.45488 | 32334 ft | 413 kts | 228° |
| 2026-04-25 06:06 | 37.65647 | -108.47917 | 33264 ft | 412 kts | 229° |
| 2026-04-25 06:06 | 37.63544 | -108.50355 | 34211 ft | 409 kts | 229° |
| 2026-04-25 06:06 | 37.61480 | -108.52746 | 35130 ft | 404 kts | 229° |
| 2026-04-25 06:06 | 37.59403 | -108.55154 | 35784 ft | 405 kts | 229° |
| 2026-04-25 06:07 | 37.57361 | -108.57516 | 36726 ft | 402 kts | 229° |
| 2026-04-25 06:07 | 37.55291 | -108.59909 | 37497 ft | 401 kts | 229° |
| 2026-04-25 06:07 | 37.53221 | -108.62299 | 38141 ft | 402 kts | 229° |
| 2026-04-25 06:07 | 37.51157 | -108.64682 | 38862 ft | 401 kts | 229° |
| 2026-04-25 06:08 | 37.49083 | -108.67075 | 39371 ft | 404 kts | 228° |
| 2026-04-25 06:08 | 37.47007 | -108.69467 | 39944 ft | 404 kts | 228° |
| 2026-04-25 06:08 | 37.44915 | -108.71877 | 40507 ft | 405 kts | 228° |
| 2026-04-25 06:08 | 37.42847 | -108.74255 | 40998 ft | 407 kts | 228° |
| 2026-04-25 06:09 | 37.40730 | -108.76690 | 41440 ft | 409 kts | 228° |
| 2026-04-25 06:09 | 37.38624 | -108.79109 | 41947 ft | 410 kts | 227° |
| 2026-04-25 06:09 | 37.36515 | -108.81530 | 42328 ft | 413 kts | 228° |
| 2026-04-25 06:09 | 37.34375 | -108.83983 | 42808 ft | 413 kts | 228° |
| 2026-04-25 06:10 | 37.32224 | -108.86450 | 42962 ft | 423 kts | 227° |
| 2026-04-25 06:10 | 37.30013 | -108.88985 | 42981 ft | 435 kts | 227° |
| 2026-04-25 06:10 | 37.25474 | -108.94173 | 42971 ft | 450 kts | 227° |
| 2026-04-25 06:11 | 37.20834 | -108.99464 | 42955 ft | 445 kts | 227° |
| 2026-04-25 06:11 | 37.16305 | -109.04627 | 42951 ft | 439 kts | 227° |
| 2026-04-25 06:12 | 37.11765 | -109.09792 | 42947 ft | 439 kts | 227° |
| 2026-04-25 06:12 | 37.07240 | -109.14933 | 42950 ft | 441 kts | 227° |
| 2026-04-25 06:13 | 37.02677 | -109.20104 | 42957 ft | 441 kts | 227° |
| 2026-04-25 06:14 | 36.95847 | -109.27832 | 42964 ft | 440 kts | 228° |
| 2026-04-25 06:14 | 36.91280 | -109.32989 | 42973 ft | 440 kts | 227° |
| 2026-04-25 06:15 | 36.86732 | -109.38116 | 42981 ft | 440 kts | 227° |
| 2026-04-25 06:15 | 36.82196 | -109.43220 | 42977 ft | 440 kts | 228° |
| 2026-04-25 06:16 | 36.77628 | -109.48351 | 42985 ft | 440 kts | 228° |
| 2026-04-25 06:16 | 36.73067 | -109.53468 | 42989 ft | 439 kts | 228° |
| 2026-04-25 06:17 | 36.68520 | -109.58558 | 42985 ft | 439 kts | 228° |
| 2026-04-25 06:17 | 36.63987 | -109.63625 | 42991 ft | 439 kts | 228° |
| 2026-04-25 06:18 | 36.59411 | -109.68733 | 43004 ft | 440 kts | 227° |
| 2026-04-25 06:18 | 36.54829 | -109.73837 | 43005 ft | 440 kts | 227° |
| 2026-04-25 06:19 | 36.50294 | -109.78881 | 43005 ft | 438 kts | 227° |
| 2026-04-25 06:19 | 36.45718 | -109.83962 | 43011 ft | 438 kts | 227° |
| 2026-04-25 06:20 | 36.41151 | -109.89025 | 43019 ft | 438 kts | 228° |
| 2026-04-25 06:20 | 36.36604 | -109.94058 | 43007 ft | 438 kts | 227° |
| 2026-04-25 06:21 | 36.32050 | -109.99089 | 43019 ft | 438 kts | 227° |
| 2026-04-25 06:21 | 36.27454 | -110.04160 | 43018 ft | 439 kts | 228° |
| 2026-04-25 06:22 | 36.22864 | -110.09216 | 43020 ft | 438 kts | 227° |
| 2026-04-25 06:22 | 36.18308 | -110.14226 | 43016 ft | 436 kts | 227° |
| 2026-04-25 06:23 | 36.13744 | -110.19235 | 43017 ft | 436 kts | 227° |
| 2026-04-25 06:23 | 36.09206 | -110.24210 | 43018 ft | 437 kts | 228° |
| 2026-04-25 06:24 | 36.04626 | -110.29221 | 43009 ft | 438 kts | 228° |
| 2026-04-25 06:24 | 36.00032 | -110.34239 | 43024 ft | 437 kts | 227° |
| 2026-04-25 06:25 | 35.95478 | -110.39208 | 43020 ft | 435 kts | 227° |
| 2026-04-25 06:25 | 35.90909 | -110.44183 | 43026 ft | 436 kts | 227° |
| 2026-04-25 06:26 | 35.86492 | -110.48980 | 42998 ft | 420 kts | 228° |
| 2026-04-25 06:26 | 35.82177 | -110.53666 | 42979 ft | 410 kts | 229° |
| 2026-04-25 06:27 | 35.77871 | -110.58340 | 42958 ft | 415 kts | 229° |
| 2026-04-25 06:27 | 35.73477 | -110.63093 | 42946 ft | 418 kts | 228° |
| 2026-04-25 06:28 | 35.69118 | -110.67803 | 42766 ft | 419 kts | 228° |
| 2026-04-25 06:28 | 35.66931 | -110.70164 | 42363 ft | 419 kts | 228° |
| 2026-04-25 06:28 | 35.64749 | -110.72516 | 41907 ft | 415 kts | 228° |
| 2026-04-25 06:28 | 35.62605 | -110.74823 | 41460 ft | 410 kts | 228° |
| 2026-04-25 06:29 | 35.60458 | -110.77137 | 41011 ft | 406 kts | 229° |
| 2026-04-25 06:29 | 35.58348 | -110.79408 | 40578 ft | 404 kts | 229° |
| 2026-04-25 06:29 | 35.56234 | -110.81684 | 40120 ft | 401 kts | 229° |
| 2026-04-25 06:29 | 35.54133 | -110.83940 | 39676 ft | 399 kts | 229° |
| 2026-04-25 06:30 | 35.52044 | -110.86185 | 39219 ft | 400 kts | 229° |
| 2026-04-25 06:30 | 35.49957 | -110.88424 | 38722 ft | 399 kts | 229° |
| 2026-04-25 06:30 | 35.47861 | -110.90673 | 38248 ft | 399 kts | 230° |
| 2026-04-25 06:30 | 35.45764 | -110.92919 | 37800 ft | 399 kts | 230° |
| 2026-04-25 06:31 | 35.43677 | -110.95156 | 37369 ft | 399 kts | 229° |
| 2026-04-25 06:31 | 35.41582 | -110.97397 | 37142 ft | 399 kts | 230° |
| 2026-04-25 06:31 | 35.39448 | -110.99586 | 36546 ft | 401 kts | 228° |
| 2026-04-25 06:31 | 35.37267 | -111.01735 | 36068 ft | 398 kts | 228° |
| 2026-04-25 06:32 | 35.35117 | -111.03854 | 35620 ft | 398 kts | 228° |
| 2026-04-25 06:32 | 35.32964 | -111.05979 | 35190 ft | 398 kts | 227° |
| 2026-04-25 06:32 | 35.30788 | -111.08122 | 34747 ft | 401 kts | 228° |
| 2026-04-25 06:32 | 35.28607 | -111.10270 | 34306 ft | 401 kts | 227° |
| 2026-04-25 06:33 | 35.26458 | -111.12385 | 33861 ft | 402 kts | 227° |
| 2026-04-25 06:33 | 35.24276 | -111.14532 | 33427 ft | 403 kts | 228° |
| 2026-04-25 06:33 | 35.22419 | -111.16357 | 33055 ft | 405 kts | 227° |
| 2026-04-25 06:33 | 35.20541 | -111.18201 | 32666 ft | 409 kts | 227° |
| 2026-04-25 06:34 | 35.18301 | -111.20402 | 32220 ft | 411 kts | 227° |
| 2026-04-25 06:34 | 35.16066 | -111.22591 | 31765 ft | 415 kts | 227° |
| 2026-04-25 06:34 | 35.13807 | -111.24806 | 31301 ft | 417 kts | 226° |
| 2026-04-25 06:34 | 35.11519 | -111.27046 | 30834 ft | 421 kts | 226° |
| 2026-04-25 06:35 | 35.09192 | -111.29325 | 30367 ft | 441 kts | 225° |
| 2026-04-25 06:35 | 35.06499 | -111.31297 | 29854 ft | 456 kts | 213° |
| 2026-04-25 06:35 | 35.03643 | -111.32925 | 29344 ft | 454 kts | 213° |
| 2026-04-25 06:35 | 35.00787 | -111.34553 | 28839 ft | 446 kts | 213° |
| 2026-04-25 06:36 | 34.97996 | -111.36148 | 28346 ft | 442 kts | 213° |
| 2026-04-25 06:36 | 34.95224 | -111.37733 | 27864 ft | 439 kts | 213° |
| 2026-04-25 06:36 | 34.92480 | -111.39298 | 27378 ft | 438 kts | 213° |
| 2026-04-25 06:36 | 34.89717 | -111.40876 | 26902 ft | 435 kts | 212° |
| 2026-04-25 06:37 | 34.86980 | -111.42436 | 26422 ft | 433 kts | 212° |
| 2026-04-25 06:37 | 34.84243 | -111.43993 | 25942 ft | 429 kts | 213° |
| 2026-04-25 06:37 | 34.81556 | -111.45523 | 25474 ft | 428 kts | 213° |
| 2026-04-25 06:37 | 34.78875 | -111.47050 | 25002 ft | 425 kts | 213° |
| 2026-04-25 06:38 | 34.76199 | -111.48571 | 24535 ft | 420 kts | 212° |
| 2026-04-25 06:38 | 34.73539 | -111.50080 | 24064 ft | 417 kts | 212° |
| 2026-04-25 06:38 | 34.70912 | -111.51572 | 23601 ft | 415 kts | 212° |
| 2026-04-25 06:38 | 34.68300 | -111.53053 | 23143 ft | 415 kts | 212° |
| 2026-04-25 06:39 | 34.65683 | -111.54537 | 22692 ft | 415 kts | 212° |
| 2026-04-25 06:39 | 34.63065 | -111.56020 | 22236 ft | 409 kts | 212° |
| 2026-04-25 06:39 | 34.60501 | -111.57471 | 21781 ft | 406 kts | 212° |
| 2026-04-25 06:39 | 34.57922 | -111.58931 | 21317 ft | 406 kts | 212° |
| 2026-04-25 06:40 | 34.55384 | -111.60365 | 20867 ft | 401 kts | 211° |
| 2026-04-25 06:40 | 34.52874 | -111.61782 | 20426 ft | 398 kts | 211° |
| 2026-04-25 06:40 | 34.50355 | -111.63204 | 19973 ft | 396 kts | 211° |
| 2026-04-25 06:40 | 34.47845 | -111.64619 | 19525 ft | 395 kts | 211° |
| 2026-04-25 06:41 | 34.45369 | -111.66016 | 19090 ft | 392 kts | 210° |
| 2026-04-25 06:41 | 34.42951 | -111.67560 | 18664 ft | 388 kts | 214° |
| 2026-04-25 06:41 | 34.40635 | -111.69199 | 18343 ft | 386 kts | 215° |
| 2026-04-25 06:41 | 34.38327 | -111.70825 | 17941 ft | 384 kts | 214° |
| 2026-04-25 06:42 | 34.35999 | -111.72465 | 17514 ft | 383 kts | 214° |
| 2026-04-25 06:42 | 34.33720 | -111.74068 | 17090 ft | 380 kts | 214° |
| 2026-04-25 06:42 | 34.31453 | -111.75661 | 16675 ft | 378 kts | 214° |
| 2026-04-25 06:42 | 34.29171 | -111.77263 | 16257 ft | 377 kts | 214° |
| 2026-04-25 06:43 | 34.26920 | -111.78842 | 15839 ft | 376 kts | 214° |
| 2026-04-25 06:43 | 34.24663 | -111.80424 | 15430 ft | 373 kts | 213° |
| 2026-04-25 06:43 | 34.22401 | -111.82010 | 15009 ft | 372 kts | 213° |
| 2026-04-25 06:43 | 34.20144 | -111.83590 | 14582 ft | 371 kts | 213° |
| 2026-04-25 06:44 | 34.17919 | -111.85146 | 14154 ft | 370 kts | 213° |
| 2026-04-25 06:44 | 34.15707 | -111.86696 | 13755 ft | 370 kts | 213° |
| 2026-04-25 06:44 | 34.13474 | -111.88255 | 13345 ft | 368 kts | 212° |
| 2026-04-25 06:44 | 34.11270 | -111.89794 | 12936 ft | 365 kts | 212° |
| 2026-04-25 06:45 | 34.09070 | -111.91330 | 12537 ft | 364 kts | 212° |
| 2026-04-25 06:45 | 34.06895 | -111.92831 | 12136 ft | 363 kts | 210° |
| 2026-04-25 06:45 | 34.04568 | -111.94019 | 11727 ft | 363 kts | 203° |
| 2026-04-25 06:45 | 34.02228 | -111.95116 | 11323 ft | 360 kts | 203° |
| 2026-04-25 06:46 | 33.99865 | -111.96228 | 10916 ft | 357 kts | 203° |
| 2026-04-25 06:46 | 33.97610 | -111.97291 | 10518 ft | 343 kts | 203° |
| 2026-04-25 06:46 | 33.95412 | -111.98326 | 10132 ft | 329 kts | 203° |
| 2026-04-25 06:46 | 33.93325 | -111.99311 | 9771 ft | 318 kts | 202° |
| 2026-04-25 06:47 | 33.91282 | -112.00273 | 9416 ft | 308 kts | 202° |
| 2026-04-25 06:47 | 33.89311 | -112.01202 | 9065 ft | 299 kts | 202° |
| 2026-04-25 06:47 | 33.87397 | -112.02102 | 8731 ft | 291 kts | 202° |
| 2026-04-25 06:47 | 33.85536 | -112.02978 | 8411 ft | 283 kts | 202° |
| 2026-04-25 06:48 | 33.83715 | -112.03835 | 8090 ft | 277 kts | 202° |
| 2026-04-25 06:48 | 33.81932 | -112.04674 | 7780 ft | 272 kts | 203° |
| 2026-04-25 06:48 | 33.80170 | -112.05448 | 7455 ft | 269 kts | 194° |
| 2026-04-25 06:48 | 33.78302 | -112.05306 | 6965 ft | 278 kts | 162° |
| 2026-04-25 06:49 | 33.76741 | -112.03919 | 6570 ft | 282 kts | 135° |
| 2026-04-25 06:49 | 33.75431 | -112.02167 | 6170 ft | 281 kts | 131° |
| 2026-04-25 06:49 | 33.74431 | -112.00137 | 5766 ft | 281 kts | 120° |
| 2026-04-25 06:49 | 33.73576 | -111.98143 | 5851 ft | 257 kts | 119° |
| 2026-04-25 06:50 | 33.72791 | -111.96302 | 5829 ft | 236 kts | 120° |
| 2026-04-25 06:50 | 33.72079 | -111.94604 | 5767 ft | 215 kts | 119° |
| 2026-04-25 06:50 | 33.71458 | -111.93100 | 5409 ft | 197 kts | 119° |
| 2026-04-25 06:50 | 33.70829 | -111.91679 | 4881 ft | 185 kts | 123° |
| 2026-04-25 06:51 | 33.70031 | -111.90465 | 4482 ft | 195 kts | 134° |
| 2026-04-25 06:51 | 33.69076 | -111.89391 | 4036 ft | 180 kts | 142° |
| 2026-04-25 06:51 | 33.68103 | -111.88541 | 3659 ft | 167 kts | 148° |
| 2026-04-25 06:51 | 33.67144 | -111.87864 | 3275 ft | 155 kts | 156° |
| 2026-04-25 06:52 | 33.66133 | -111.87611 | 2820 ft | 145 kts | 182° |
| 2026-04-25 06:52 | 33.65202 | -111.87894 | 2406 ft | 134 kts | 206° |
| 2026-04-25 06:52 | 33.64475 | -111.88522 | 2036 ft | 128 kts | 224° |
| 2026-04-25 06:52 | 33.63842 | -111.89259 | 1798 ft | 126 kts | 225° |
| 2026-04-25 06:53 | 33.63211 | -111.89992 | 1595 ft | 124 kts | 225° |
| 2026-04-25 06:53 | 33.62614 | -111.90676 | 1517 ft | 108 kts | 222° |
| 2026-04-25 06:53 | 33.62210 | -111.91144 | 1516 ft | 54 kts | 224° |
| 2026-04-25 06:53 | 33.62006 | -111.91379 | 1515 ft | 17 kts | 224° |
| 2026-04-25 06:54 | 33.61933 | -111.91434 | 1515 ft | 11 kts | 180° |
| 2026-04-25 06:54 | 33.61887 | -111.91409 | 1515 ft | 5 kts | 64° |
| 2026-04-25 06:54 | 33.61914 | -111.91373 | 1515 ft | 5 kts | 46° |
| 2026-04-25 06:54 | 33.61948 | -111.91332 | 1515 ft | 8 kts | 45° |
| 2026-04-25 06:55 | 33.62005 | -111.91264 | 1515 ft | 14 kts | 44° |
| 2026-04-25 06:55 | 33.62095 | -111.91163 | 1516 ft | 19 kts | 43° |
| 2026-04-25 06:55 | 33.62191 | -111.91052 | 1516 ft | 18 kts | 44° |
| 2026-04-25 06:55 | 33.62281 | -111.90949 | 1516 ft | 17 kts | 44° |
| 2026-04-25 06:56 | 33.62365 | -111.90851 | 1516 ft | 16 kts | 44° |
| 2026-04-25 06:56 | 33.62445 | -111.90758 | 1516 ft | 15 kts | 44° |
| 2026-04-25 06:56 | 33.62525 | -111.90666 | 1516 ft | 16 kts | 43° |
| 2026-04-25 06:56 | 33.62588 | -111.90595 | 1516 ft | 5 kts | 46° |
| 2026-04-25 06:57 | 33.62588 | -111.90568 | 1516 ft | 3 kts | 121° |
| 2026-04-25 06:57 | 33.62573 | -111.90547 | 1516 ft | 3 kts | 134° |
| 2026-04-25 06:57 | 33.62558 | -111.90529 | 1516 ft | 2 kts | 136° |
| 2026-04-25 06:57 | 33.62544 | -111.90524 | 1516 ft | 1 kts | 179° |
| 2026-04-25 06:58 | 33.62535 | -111.90527 | 1516 ft | 0 kts | 205° |
| 2026-04-25 06:58 | 33.62527 | -111.90536 | 1516 ft | 2 kts | 227° |
| 2026-04-25 06:58 | 33.62519 | -111.90545 | 1516 ft | 1 kts | 228° |
| 2026-04-25 06:58 | 33.62519 | -111.90552 | 1516 ft | 1 kts | 282° |
| 2026-04-25 06:59 | 33.62528 | -111.90557 | 1516 ft | 1 kts | 358° |
| 2026-04-25 06:59 | 33.62532 | -111.90552 | 1516 ft | 0 kts | 45° |